Time;durP1;ratioP1;P1;durP2;ratioP2;P2;SDS_P1;SDS_P2;PMS_P1;PMS_P2;Temp;Humidity;BMP_temperature;BMP_pressure;BME280_temperature;BME280_humidity;BME280_pressure;Samples;Min_cycle;Max_cycle;Signal;HPM_P1;HPM_P2
2021/03/12 00:00:47;;;;;;;;;;;9.50;82.20;;;;;;5012984;28;19922;-75
2021/03/12 00:03:15;;;;;;;;;;;9.50;82.40;;;;;;5013042;28;19926;-75
2021/03/12 00:05:42;;;;;;;;;;;9.50;82.00;;;;;;5013743;28;19929;-75
2021/03/12 00:08:08;;;;;;;;;;;9.50;82.30;;;;;;5014059;28;19932;-75
2021/03/12 00:10:35;;;;;;;;;;;9.60;82.40;;;;;;5013528;28;19925;-75
2021/03/12 00:13:02;;;;;;;;;;;9.60;82.40;;;;;;4998945;28;19921;-75
2021/03/12 00:15:29;;;;;;;;;;;9.60;82.30;;;;;;5013471;28;19925;-75
2021/03/12 00:17:55;;;;;;;;;;;9.70;82.00;;;;;;5014073;28;20350;-75
2021/03/12 00:20:22;;;;;;;;;;;9.70;81.60;;;;;;5012633;28;19926;-75
2021/03/12 00:22:48;;;;;;;;;;;9.80;80.80;;;;;;5012312;28;19928;-75
2021/03/12 00:25:15;;;;;;;;;;;9.80;81.20;;;;;;5013043;28;20322;-74
2021/03/12 00:27:43;;;;;;;;;;;9.80;81.40;;;;;;5013694;28;19921;-76
2021/03/12 00:30:10;;;;;;;;;;;9.90;81.00;;;;;;5012843;28;19929;-75
2021/03/12 00:32:36;;;;;;;;;;;9.90;79.70;;;;;;5013493;28;19921;-75
2021/03/12 00:35:03;;;;;;;;;;;9.90;79.40;;;;;;5012992;28;19963;-75
2021/03/12 00:37:30;;;;;;;;;;;10.00;78.10;;;;;;5013588;28;19975;-75
2021/03/12 00:39:56;;;;;;;;;;;10.00;78.00;;;;;;5011453;28;19989;-74
2021/03/12 00:42:22;;;;;;;;;;;10.00;77.60;;;;;;5012586;28;19948;-76
2021/03/12 00:44:50;;;;;;;;;;;10.00;77.40;;;;;;5013276;28;19921;-75
2021/03/12 00:47:16;;;;;;;;;;;10.00;75.90;;;;;;5013223;28;19976;-76
2021/03/12 00:49:42;;;;;;;;;;;10.00;73.60;;;;;;5012991;28;20370;-75
2021/03/12 00:52:09;;;;;;;;;;;9.90;75.70;;;;;;5012786;28;19944;-75
2021/03/12 00:54:35;;;;;;;;;;;9.90;74.50;;;;;;5012974;28;19983;-76
2021/03/12 00:57:01;;;;;;;;;;;9.90;75.10;;;;;;5012584;28;19929;-76
2021/03/12 00:59:28;;;;;;;;;;;9.90;74.80;;;;;;5012396;28;19932;-75
2021/03/12 01:01:55;;;;;;;;;;;9.90;73.90;;;;;;5013135;28;19921;-76
2021/03/12 01:04:21;;;;;;;;;;;10.00;73.40;;;;;;5012411;28;20325;-76
2021/03/12 01:06:47;;;;;;;;;;;10.00;72.80;;;;;;5011569;28;19968;-75
2021/03/12 01:09:14;;;;;;;;;;;10.00;73.10;;;;;;5012603;28;19928;-75
2021/03/12 01:11:40;;;;;;;;;;;10.00;72.80;;;;;;5005280;28;19929;-75
2021/03/12 01:14:06;;;;;;;;;;;10.00;71.20;;;;;;5007285;28;19922;-75
2021/03/12 01:16:32;;;;;;;;;;;10.00;70.20;;;;;;5013055;28;19928;-75
2021/03/12 01:18:59;;;;;;;;;;;10.00;71.00;;;;;;5011254;28;20286;-76
2021/03/12 01:21:26;;;;;;;;;;;10.00;69.50;;;;;;5012388;28;19926;-75
2021/03/12 01:23:52;;;;;;;;;;;9.90;69.30;;;;;;5012727;28;19921;-76
2021/03/12 01:26:18;;;;;;;;;;;9.90;70.60;;;;;;5013083;28;19930;-75
2021/03/12 01:28:45;;;;;;;;;;;10.00;69.90;;;;;;5012316;28;20300;-76
2021/03/12 01:31:11;;;;;;;;;;;10.10;70.40;;;;;;5012394;28;19926;-75
2021/03/12 01:33:37;;;;;;;;;;;10.00;68.40;;;;;;5011087;28;19968;-75
2021/03/12 01:36:05;;;;;;;;;;;10.00;66.90;;;;;;5012298;28;20362;-75
2021/03/12 01:38:31;;;;;;;;;;;10.00;67.30;;;;;;5011416;28;20298;-75
2021/03/12 01:40:57;;;;;;;;;;;9.80;65.20;;;;;;5012486;28;19926;-75
2021/03/12 01:43:23;;;;;;;;;;;9.80;65.50;;;;;;5012671;28;19921;-75
2021/03/12 01:45:50;;;;;;;;;;;9.80;66.40;;;;;;5016772;28;20386;-76
2021/03/12 01:48:17;;;;;;;;;;;9.80;66.20;;;;;;5016508;28;19925;-76
2021/03/12 01:50:45;;;;;;;;;;;9.80;66.00;;;;;;5015983;28;19925;-76
2021/03/12 01:53:12;;;;;;;;;;;9.80;66.10;;;;;;5015882;28;19929;-75
2021/03/12 01:55:39;;;;;;;;;;;9.80;66.60;;;;;;5015342;28;19972;-75
2021/03/12 01:58:05;;;;;;;;;;;9.90;67.20;;;;;;5016023;28;19922;-75
2021/03/12 02:00:32;;;;;;;;;;;9.90;67.70;;;;;;5013961;28;19925;-75
2021/03/12 02:02:59;;;;;;;;;;;9.90;67.50;;;;;;5016401;28;20259;-75
2021/03/12 02:05:25;;;;;;;;;;;9.90;67.70;;;;;;5015892;28;19928;-75
2021/03/12 02:07:52;;;;;;;;;;;9.90;67.50;;;;;;5016099;28;19922;-74
2021/03/12 02:10:21;;;;;;;;;;;9.80;66.60;;;;;;5015980;28;19921;-73
2021/03/12 02:12:52;;;;;;;;;;;9.80;67.00;;;;;;4999319;28;19921;-75
2021/03/12 02:15:20;;;;;;;;;;;9.70;67.90;;;;;;5009841;28;19921;-75
2021/03/12 02:17:51;;;;;;;;;;;9.60;68.30;;;;;;5015605;28;19921;-75
2021/03/12 02:20:29;;;;;;;;;;;9.70;68.60;;;;;;5015409;28;19928;-75
2021/03/12 02:23:02;;;;;;;;;;;9.60;68.00;;;;;;4996445;28;19925;-75
2021/03/12 02:25:30;;;;;;;;;;;9.50;67.90;;;;;;5009275;28;20385;-75
2021/03/12 02:27:58;;;;;;;;;;;9.50;68.10;;;;;;5014472;28;20072;-76
2021/03/12 02:30:25;;;;;;;;;;;9.40;68.00;;;;;;5014093;28;19921;-75
2021/03/12 02:32:52;;;;;;;;;;;9.40;68.50;;;;;;5015062;28;20000;-76
2021/03/12 02:35:19;;;;;;;;;;;9.40;68.40;;;;;;5015861;28;19944;-76
2021/03/12 02:37:46;;;;;;;;;;;9.30;68.30;;;;;;5014884;28;20337;-76
2021/03/12 02:40:13;;;;;;;;;;;9.40;68.40;;;;;;5014640;28;19929;-76
2021/03/12 02:42:40;;;;;;;;;;;9.40;68.50;;;;;;5015928;28;19921;-75
2021/03/12 02:45:09;;;;;;;;;;;9.40;68.70;;;;;;5015139;28;19984;-76
2021/03/12 02:47:36;;;;;;;;;;;9.30;67.60;;;;;;5011527;28;19948;-75
2021/03/12 02:50:03;;;;;;;;;;;9.30;67.40;;;;;;5015325;28;19922;-76
2021/03/12 02:52:30;;;;;;;;;;;9.30;67.50;;;;;;5013755;28;19921;-75
2021/03/12 02:54:56;;;;;;;;;;;9.30;67.20;;;;;;5013984;28;20371;-75
2021/03/12 02:57:23;;;;;;;;;;;9.30;67.00;;;;;;5014397;28;19926;-75
2021/03/12 02:59:51;;;;;;;;;;;9.30;66.30;;;;;;5013588;28;19929;-75
2021/03/12 03:02:19;;;;;;;;;;;9.30;66.30;;;;;;5015217;28;19921;-74
2021/03/12 03:04:46;;;;;;;;;;;9.00;64.70;;;;;;5014723;28;19922;-74
2021/03/12 03:07:13;;;;;;;;;;;9.00;65.80;;;;;;5014774;28;19921;-75
2021/03/12 03:09:41;;;;;;;;;;;9.00;66.00;;;;;;5014093;28;20374;-75
2021/03/12 03:12:09;;;;;;;;;;;9.10;66.20;;;;;;5014818;28;19944;-74
2021/03/12 03:14:35;;;;;;;;;;;9.20;66.40;;;;;;5014882;28;19925;-73
2021/03/12 03:17:05;;;;;;;;;;;9.20;66.10;;;;;;5014271;28;19921;-74
2021/03/12 03:19:35;;;;;;;;;;;9.20;66.20;;;;;;5012693;28;19925;-74
2021/03/12 03:22:02;;;;;;;;;;;9.20;66.30;;;;;;5013805;28;19925;-74
2021/03/12 03:24:29;;;;;;;;;;;9.20;66.30;;;;;;5014825;28;19922;-74
2021/03/12 03:26:55;;;;;;;;;;;9.20;66.40;;;;;;5014654;28;19929;-74
2021/03/12 03:29:21;;;;;;;;;;;9.20;66.10;;;;;;5014127;28;19947;-74
2021/03/12 03:31:48;;;;;;;;;;;9.20;65.50;;;;;;5014561;28;20345;-74
2021/03/12 03:34:15;;;;;;;;;;;9.10;64.50;;;;;;5014543;28;19929;-73
2021/03/12 03:36:42;;;;;;;;;;;9.10;64.60;;;;;;5014747;28;19928;-74
2021/03/12 03:39:09;;;;;;;;;;;9.10;64.50;;;;;;5012842;28;19921;-74
2021/03/12 03:41:39;;;;;;;;;;;9.10;63.10;;;;;;5013765;28;20448;-73
2021/03/12 03:44:06;;;;;;;;;;;9.10;62.70;;;;;;5014327;28;19921;-74
2021/03/12 03:46:36;;;;;;;;;;;9.00;62.00;;;;;;5011560;28;20361;-74
2021/03/12 03:49:02;;;;;;;;;;;9.00;61.40;;;;;;5013402;28;19921;-74
2021/03/12 03:51:28;;;;;;;;;;;9.00;62.10;;;;;;5013516;28;19921;-74
2021/03/12 03:53:56;;;;;;;;;;;9.10;61.30;;;;;;5014015;28;19926;-73
2021/03/12 03:56:22;;;;;;;;;;;9.10;61.40;;;;;;5012322;28;20429;-75
2021/03/12 03:58:49;;;;;;;;;;;9.10;61.30;;;;;;5013952;28;20016;-73
2021/03/12 04:01:17;;;;;;;;;;;9.20;61.40;;;;;;5012989;28;19971;-73
2021/03/12 04:03:43;;;;;;;;;;;9.20;61.00;;;;;;5013402;28;19933;-73
2021/03/12 04:06:10;;;;;;;;;;;9.20;60.20;;;;;;5012855;28;19928;-74
2021/03/12 04:08:37;;;;;;;;;;;9.10;58.80;;;;;;5012969;28;19921;-74
2021/03/12 04:11:05;;;;;;;;;;;9.10;59.20;;;;;;5013416;28;20019;-74
2021/03/12 04:13:31;;;;;;;;;;;9.10;58.20;;;;;;5011020;28;19980;-74
2021/03/12 04:15:58;;;;;;;;;;;9.20;59.00;;;;;;5013764;28;19979;-74
2021/03/12 04:18:25;;;;;;;;;;;9.20;57.40;;;;;;5013273;28;19921;-74
2021/03/12 04:20:51;;;;;;;;;;;9.20;57.40;;;;;;5014047;28;19925;-74
2021/03/12 04:23:18;;;;;;;;;;;9.30;58.00;;;;;;5013353;28;19928;-74
2021/03/12 04:25:45;;;;;;;;;;;9.30;58.20;;;;;;5014075;28;19929;-74
2021/03/12 04:28:12;;;;;;;;;;;9.40;56.80;;;;;;5012744;28;19921;-73
2021/03/12 04:30:39;;;;;;;;;;;9.20;55.90;;;;;;5012535;28;19925;-74
2021/03/12 04:33:06;;;;;;;;;;;9.20;55.80;;;;;;5013027;28;19921;-74
2021/03/12 04:35:32;;;;;;;;;;;9.20;56.30;;;;;;5013291;28;19921;-74
2021/03/12 04:37:58;;;;;;;;;;;9.30;56.30;;;;;;5012588;28;19921;-73
2021/03/12 04:40:25;;;;;;;;;;;9.40;56.50;;;;;;5010578;28;19925;-74
2021/03/12 04:42:51;;;;;;;;;;;9.40;55.60;;;;;;5012993;28;19921;-74
2021/03/12 04:45:19;;;;;;;;;;;9.30;55.00;;;;;;5013414;28;19925;-75
2021/03/12 04:47:45;;;;;;;;;;;9.30;55.30;;;;;;5013087;28;19925;-74
2021/03/12 04:50:12;;;;;;;;;;;9.30;54.50;;;;;;5012113;28;19929;-74
2021/03/12 04:52:39;;;;;;;;;;;9.30;54.90;;;;;;5012271;28;19937;-74
2021/03/12 04:55:06;;;;;;;;;;;9.20;54.90;;;;;;5013281;28;20330;-73
2021/03/12 04:57:35;;;;;;;;;;;9.30;55.50;;;;;;5012976;28;19968;-74
2021/03/12 05:00:01;;;;;;;;;;;9.40;55.60;;;;;;5012336;28;19932;-75
2021/03/12 05:02:34;;;;;;;;;;;9.40;55.10;;;;;;5012943;28;19926;-74
2021/03/12 05:05:00;;;;;;;;;;;9.40;54.20;;;;;;5012299;28;20008;-74
2021/03/12 05:07:28;;;;;;;;;;;9.40;54.20;;;;;;5010380;28;20011;-74
2021/03/12 05:09:54;;;;;;;;;;;9.30;54.00;;;;;;5013093;28;19922;-74
2021/03/12 05:12:20;;;;;;;;;;;9.40;54.20;;;;;;5012772;28;19921;-74
2021/03/12 05:14:50;;;;;;;;;;;9.40;54.50;;;;;;5012086;28;19921;-74
2021/03/12 05:17:16;;;;;;;;;;;9.40;54.30;;;;;;5012514;28;19925;-73
2021/03/12 05:19:43;;;;;;;;;;;9.50;54.50;;;;;;5015247;28;20396;-73
2021/03/12 05:22:10;;;;;;;;;;;9.60;54.70;;;;;;5016837;28;19921;-73
2021/03/12 05:24:36;;;;;;;;;;;9.60;54.40;;;;;;5016191;28;19936;-73
2021/03/12 05:27:02;;;;;;;;;;;9.60;54.30;;;;;;5016465;28;19925;-73
2021/03/12 05:29:28;;;;;;;;;;;9.60;53.90;;;;;;5015536;28;20408;-74
2021/03/12 05:31:55;;;;;;;;;;;9.60;54.30;;;;;;5016109;28;19923;-74
2021/03/12 05:34:21;;;;;;;;;;;9.60;53.60;;;;;;5014776;28;20282;-73
2021/03/12 05:36:48;;;;;;;;;;;9.60;53.90;;;;;;5016084;28;19921;-73
2021/03/12 05:39:14;;;;;;;;;;;9.60;54.40;;;;;;5016450;28;19921;-74
2021/03/12 05:41:41;;;;;;;;;;;9.70;54.50;;;;;;5014140;28;19983;-75
2021/03/12 05:44:07;;;;;;;;;;;9.70;54.70;;;;;;5016393;28;19925;-74
2021/03/12 05:46:34;;;;;;;;;;;9.70;55.00;;;;;;5016408;28;19976;-74
2021/03/12 05:49:01;;;;;;;;;;;9.80;55.20;;;;;;5015851;28;20021;-75
2021/03/12 05:51:30;;;;;;;;;;;9.80;55.20;;;;;;5015869;28;19932;-76
2021/03/12 05:53:57;;;;;;;;;;;9.80;55.20;;;;;;5016287;28;19944;-75
2021/03/12 05:56:23;;;;;;;;;;;9.80;55.20;;;;;;5015085;28;20290;-74
2021/03/12 05:58:49;;;;;;;;;;;9.80;55.30;;;;;;5015471;28;19933;-74
2021/03/12 06:01:16;;;;;;;;;;;9.70;55.00;;;;;;5014246;28;19979;-75
2021/03/12 06:03:42;;;;;;;;;;;9.80;55.30;;;;;;5016304;28;19921;-74
2021/03/12 06:06:08;;;;;;;;;;;9.80;55.40;;;;;;5015146;28;20012;-75
2021/03/12 06:08:35;;;;;;;;;;;9.80;55.20;;;;;;5015720;28;20426;-74
2021/03/12 06:11:02;;;;;;;;;;;9.80;55.00;;;;;;5011049;28;19921;-74
2021/03/12 06:13:29;;;;;;;;;;;9.80;55.00;;;;;;5015242;28;19921;-74
2021/03/12 06:15:55;;;;;;;;;;;9.80;55.20;;;;;;5014845;28;20020;-75
2021/03/12 06:18:24;;;;;;;;;;;9.70;55.40;;;;;;5015238;28;20330;-73
2021/03/12 06:20:51;;;;;;;;;;;9.70;55.30;;;;;;5015940;28;19976;-75
2021/03/12 06:23:32;;;;;;;;;;;9.80;55.30;;;;;;5014618;28;19926;-75
2021/03/12 06:25:58;;;;;;;;;;;9.70;55.30;;;;;;5014614;28;19933;-74
2021/03/12 06:28:25;;;;;;;;;;;9.60;54.90;;;;;;5013253;28;19976;-75
2021/03/12 06:30:51;;;;;;;;;;;9.60;55.40;;;;;;5011241;28;20016;-74
2021/03/12 06:33:24;;;;;;;;;;;9.60;55.70;;;;;;5013356;28;19929;-75
2021/03/12 06:35:51;;;;;;;;;;;9.60;56.10;;;;;;5015228;28;19925;-76
2021/03/12 06:38:17;;;;;;;;;;;9.60;56.00;;;;;;5014839;28;19921;-75
2021/03/12 06:40:43;;;;;;;;;;;9.70;56.20;;;;;;5013516;28;19929;-75
2021/03/12 06:43:10;;;;;;;;;;;9.60;56.40;;;;;;5014741;28;19921;-75
2021/03/12 06:45:53;;;;;;;;;;;9.70;56.40;;;;;;5015166;28;19925;-74
2021/03/12 06:48:20;;;;;;;;;;;9.70;56.70;;;;;;5014023;28;19944;-74
2021/03/12 06:50:48;;;;;;;;;;;9.70;56.50;;;;;;5015000;28;19921;-74
2021/03/12 06:53:18;;;;;;;;;;;9.80;56.60;;;;;;5014511;28;19921;-75
2021/03/12 06:55:44;;;;;;;;;;;9.80;56.50;;;;;;5012104;28;20386;-76
2021/03/12 06:58:11;;;;;;;;;;;9.80;56.70;;;;;;5011618;28;20318;-74
2021/03/12 07:00:37;;;;;;;;;;;9.80;56.90;;;;;;5014703;28;19968;-75
2021/03/12 07:03:17;;;;;;;;;;;9.80;56.70;;;;;;5014294;28;19925;-75
2021/03/12 07:05:56;;;;;;;;;;;9.80;56.60;;;;;;5013839;28;19922;-73
2021/03/12 07:08:29;;;;;;;;;;;9.80;56.80;;;;;;5014472;28;19925;-75
2021/03/12 07:10:56;;;;;;;;;;;9.80;57.10;;;;;;5012106;28;19983;-76
2021/03/12 07:13:22;;;;;;;;;;;9.90;57.50;;;;;;5011407;28;19928;-75
2021/03/12 07:15:51;;;;;;;;;;;9.90;57.50;;;;;;5014321;28;19921;-75
2021/03/12 07:18:18;;;;;;;;;;;10.10;56.80;;;;;;5013641;28;19953;-75
2021/03/12 07:20:45;;;;;;;;;;;10.20;56.60;;;;;;5012623;28;19928;-75
2021/03/12 07:23:11;;;;;;;;;;;10.30;56.60;;;;;;5010474;28;19925;-76
2021/03/12 07:25:39;;;;;;;;;;;10.40;57.00;;;;;;5014177;28;19921;-75
2021/03/12 07:28:05;;;;;;;;;;;10.50;56.50;;;;;;5013976;28;19929;-75
2021/03/12 07:30:33;;;;;;;;;;;10.60;56.10;;;;;;5014036;28;19940;-76
2021/03/12 07:33:00;;;;;;;;;;;10.80;56.30;;;;;;5013525;28;19929;-76
2021/03/12 07:35:27;;;;;;;;;;;10.90;55.30;;;;;;5013957;28;19930;-76
2021/03/12 07:37:54;;;;;;;;;;;11.00;55.40;;;;;;5013740;28;19925;-76
2021/03/12 07:40:21;;;;;;;;;;;11.10;55.60;;;;;;5014443;28;20405;-77
2021/03/12 07:42:48;;;;;;;;;;;11.10;54.70;;;;;;5013081;28;19932;-75
2021/03/12 07:45:17;;;;;;;;;;;11.00;54.60;;;;;;5012744;28;19925;-76
2021/03/12 07:47:44;;;;;;;;;;;11.00;55.10;;;;;;5011579;28;19975;-76
2021/03/12 07:50:24;;;;;;;;;;;11.00;55.60;;;;;;4997353;28;19932;-76
2021/03/12 07:52:51;;;;;;;;;;;11.00;55.30;;;;;;5004771;28;19929;-75
2021/03/12 07:55:36;;;;;;;;;;;10.80;54.30;;;;;;5013723;28;19975;-75
2021/03/12 07:58:03;;;;;;;;;;;10.70;55.00;;;;;;5013422;28;19944;-75
2021/03/12 08:00:29;;;;;;;;;;;10.60;55.30;;;;;;5013025;28;19922;-75
2021/03/12 08:02:57;;;;;;;;;;;10.60;55.10;;;;;;5013523;28;19921;-75
2021/03/12 08:05:30;;;;;;;;;;;10.60;55.30;;;;;;5013892;28;19921;-76
2021/03/12 08:07:58;;;;;;;;;;;10.60;55.40;;;;;;5013742;28;19921;-75
2021/03/12 08:10:25;;;;;;;;;;;10.60;55.10;;;;;;5013861;28;19922;-76
2021/03/12 08:12:51;;;;;;;;;;;10.60;55.20;;;;;;5013028;28;20008;-75
2021/03/12 08:15:18;;;;;;;;;;;10.70;55.40;;;;;;5010682;28;20485;-77
2021/03/12 08:17:45;;;;;;;;;;;10.70;55.30;;;;;;5009723;28;20004;-76
2021/03/12 08:20:27;;;;;;;;;;;10.70;55.30;;;;;;5013311;28;20335;-79
2021/03/12 08:22:54;;;;;;;;;;;10.90;55.50;;;;;;5011216;28;19980;-78
2021/03/12 08:25:44;;;;;;;;;;;11.10;55.50;;;;;;5010538;28;19929;-76
2021/03/12 08:28:32;;;;;;;;;;;11.20;55.00;;;;;;5013119;28;19928;-75
2021/03/12 08:31:01;;;;;;;;;;;11.50;54.60;;;;;;5007018;28;20301;-76
2021/03/12 08:33:40;;;;;;;;;;;11.70;53.80;;;;;;4993869;28;19922;-76
2021/03/12 08:36:06;;;;;;;;;;;12.20;53.60;;;;;;5005233;28;19925;-76
2021/03/12 08:38:40;;;;;;;;;;;12.40;52.10;;;;;;5012729;28;19925;-75
2021/03/12 08:41:12;;;;;;;;;;;12.40;51.40;;;;;;5012523;28;20374;-75
2021/03/12 08:43:41;;;;;;;;;;;12.30;50.80;;;;;;5012077;28;19948;-76
2021/03/12 08:46:11;;;;;;;;;;;12.10;50.70;;;;;;5007615;28;19921;-75
2021/03/12 08:48:37;;;;;;;;;;;11.90;50.80;;;;;;5012529;28;19922;-75
2021/03/12 08:54:31;;;;;;;;;;;11.70;51.20;;;;;;4961882;28;20004;-83
2021/03/12 08:57:20;;;;;;;;;;;11.50;50.80;;;;;;4987031;28;19928;-85
2021/03/12 09:00:01;;;;;;;;;;;11.40;50.80;;;;;;4998329;28;19947;-78
2021/03/12 09:02:28;;;;;;;;;;;11.40;50.60;;;;;;5008745;28;19972;-79
2021/03/12 09:04:54;;;;;;;;;;;11.50;50.30;;;;;;5012799;28;19976;-80
2021/03/12 09:07:20;;;;;;;;;;;11.60;50.60;;;;;;5012192;28;19921;-80
2021/03/12 09:09:47;;;;;;;;;;;11.70;50.70;;;;;;5011092;28;20013;-78
2021/03/12 09:12:13;;;;;;;;;;;11.80;50.80;;;;;;5012694;28;19928;-77
2021/03/12 09:14:41;;;;;;;;;;;11.80;49.00;;;;;;5012605;28;20519;-80
2021/03/12 09:17:08;;;;;;;;;;;11.80;48.10;;;;;;5003948;28;19921;-83
2021/03/12 09:19:41;;;;;;;;;;;11.70;47.50;;;;;;5011873;28;20012;-85
2021/03/12 09:22:34;;;;;;;;;;;11.70;47.30;;;;;;5011616;28;19996;-87
2021/03/12 09:25:10;;;;;;;;;;;11.70;47.30;;;;;;5010417;28;19933;-82
2021/03/12 09:27:36;;;;;;;;;;;11.80;47.50;;;;;;5012293;28;19960;-81
2021/03/12 09:30:04;;;;;;;;;;;11.80;48.00;;;;;;5012587;28;19921;-81
2021/03/12 09:32:40;;;;;;;;;;;11.90;48.10;;;;;;5009216;28;19928;-79
2021/03/12 09:41:55;;;;;;;;;;;12.30;47.80;;;;;;4994844;28;19928;-86
2021/03/12 09:44:22;;;;;;;;;;;12.40;48.00;;;;;;5002339;28;20374;-81
2021/03/12 09:46:53;;;;;;;;;;;12.50;46.70;;;;;;5009533;28;20358;-82
2021/03/12 09:49:21;;;;;;;;;;;12.60;46.50;;;;;;5005596;28;19922;-81
2021/03/12 09:51:48;;;;;;;;;;;12.60;46.10;;;;;;5001371;28;19921;-76
2021/03/12 09:54:16;;;;;;;;;;;12.60;45.90;;;;;;5010561;28;19921;-75
2021/03/12 09:56:49;;;;;;;;;;;12.50;46.60;;;;;;5011971;28;20287;-78
2021/03/12 09:59:17;;;;;;;;;;;12.50;46.60;;;;;;5011757;28;19984;-76
2021/03/12 10:01:44;;;;;;;;;;;12.50;46.70;;;;;;5011896;28;19922;-77
2021/03/12 10:04:24;;;;;;;;;;;12.50;47.40;;;;;;5009518;28;19925;-79
2021/03/12 10:07:00;;;;;;;;;;;12.50;46.80;;;;;;5012894;28;19929;-79
2021/03/12 10:09:29;;;;;;;;;;;12.60;47.20;;;;;;5015741;28;19951;-79
2021/03/12 10:11:55;;;;;;;;;;;12.60;47.30;;;;;;5014985;28;19921;-76
2021/03/12 10:14:29;;;;;;;;;;;12.50;46.90;;;;;;5007429;28;19929;-80
2021/03/12 10:17:05;;;;;;;;;;;12.60;47.30;;;;;;5015361;28;19967;-78
2021/03/12 10:19:40;;;;;;;;;;;12.70;47.50;;;;;;5014797;28;19921;-76
2021/03/12 10:22:12;;;;;;;;;;;12.80;47.30;;;;;;5012114;28;20297;-76
2021/03/12 10:24:38;;;;;;;;;;;12.90;47.30;;;;;;5014013;28;19921;-75
2021/03/12 10:27:04;;;;;;;;;;;13.00;46.60;;;;;;5011122;28;19921;-76
2021/03/12 10:29:31;;;;;;;;;;;12.90;47.00;;;;;;5008603;28;19929;-75
2021/03/12 10:32:06;;;;;;;;;;;13.00;47.60;;;;;;5011605;28;19944;-77
2021/03/12 10:34:47;;;;;;;;;;;13.10;48.50;;;;;;5014564;28;19925;-77
2021/03/12 10:37:16;;;;;;;;;;;13.30;48.70;;;;;;5012374;28;20337;-76
2021/03/12 10:39:43;;;;;;;;;;;13.60;49.30;;;;;;5014251;28;20385;-76
2021/03/12 10:42:10;;;;;;;;;;;13.90;48.90;;;;;;5014731;28;19929;-76
2021/03/12 10:44:54;;;;;;;;;;;14.20;48.90;;;;;;4995952;28;19976;-76
2021/03/12 10:47:21;;;;;;;;;;;14.40;48.80;;;;;;5012108;28;19937;-77
2021/03/12 10:49:47;;;;;;;;;;;14.70;47.70;;;;;;5014510;28;20313;-78
2021/03/12 10:52:25;;;;;;;;;;;14.80;47.50;;;;;;5014446;28;19921;-78
2021/03/12 10:54:51;;;;;;;;;;;14.90;47.10;;;;;;5014988;28;19971;-78
2021/03/12 10:57:18;;;;;;;;;;;15.00;47.00;;;;;;5012545;28;19922;-78
2021/03/12 10:59:54;;;;;;;;;;;14.80;46.80;;;;;;5014853;28;19921;-78
2021/03/12 11:02:20;;;;;;;;;;;14.30;49.10;;;;;;5013228;28;19929;-79
2021/03/12 11:04:47;;;;;;;;;;;14.30;50.00;;;;;;5015258;28;19941;-78
2021/03/12 11:07:13;;;;;;;;;;;14.50;49.60;;;;;;5014302;28;19922;-79
2021/03/12 11:09:40;;;;;;;;;;;14.70;47.90;;;;;;5015051;28;19925;-78
2021/03/12 11:12:07;;;;;;;;;;;14.90;47.40;;;;;;5014392;28;19922;-79
2021/03/12 11:14:34;;;;;;;;;;;15.10;46.50;;;;;;5014100;28;20373;-77
2021/03/12 11:17:01;;;;;;;;;;;15.70;45.40;;;;;;5013588;28;20012;-78
2021/03/12 11:19:27;;;;;;;;;;;16.40;44.30;;;;;;5015009;28;20371;-78
2021/03/12 11:21:54;;;;;;;;;;;16.90;41.80;;;;;;4997233;28;19925;-79
2021/03/12 11:24:20;;;;;;;;;;;17.40;39.70;;;;;;5010546;28;19991;-80
2021/03/12 11:26:47;;;;;;;;;;;18.40;38.00;;;;;;5013990;28;19925;-78
2021/03/12 11:29:14;;;;;;;;;;;19.20;36.00;;;;;;5014437;28;19922;-77
2021/03/12 11:31:41;;;;;;;;;;;19.80;35.10;;;;;;5013249;28;19932;-78
2021/03/12 11:34:08;;;;;;;;;;;20.70;33.20;;;;;;5014258;28;19975;-79
2021/03/12 11:36:35;;;;;;;;;;;21.30;32.80;;;;;;5013897;28;19965;-79
2021/03/12 11:39:02;;;;;;;;;;;22.40;30.90;;;;;;5013900;28;19921;-79
2021/03/12 11:41:28;;;;;;;;;;;22.30;30.00;;;;;;5013566;28;20374;-79
2021/03/12 11:43:55;;;;;;;;;;;21.70;29.70;;;;;;5012709;28;19925;-80
2021/03/12 11:46:22;;;;;;;;;;;21.40;29.80;;;;;;5014102;28;19921;-79
2021/03/12 11:48:48;;;;;;;;;;;22.40;29.80;;;;;;5013260;28;19940;-77
2021/03/12 11:51:14;;;;;;;;;;;21.60;28.60;;;;;;5012172;28;19922;-78
2021/03/12 11:53:41;;;;;;;;;;;20.10;29.70;;;;;;5012382;28;19999;-77
2021/03/12 11:56:07;;;;;;;;;;;18.50;30.00;;;;;;5013241;28;19932;-78
2021/03/12 11:58:33;;;;;;;;;;;17.10;32.20;;;;;;5012194;28;19921;-77
2021/03/12 12:01:00;;;;;;;;;;;15.70;34.70;;;;;;5012261;28;19921;-78
2021/03/12 12:03:27;;;;;;;;;;;15.00;37.40;;;;;;5012853;28;19996;-77
2021/03/12 12:05:53;;;;;;;;;;;14.50;38.40;;;;;;5012424;28;19921;-76
2021/03/12 12:08:20;;;;;;;;;;;14.10;38.00;;;;;;5005045;28;20005;-80
2021/03/12 12:10:46;;;;;;;;;;;13.50;37.90;;;;;;5002965;28;19925;-81
2021/03/12 12:13:13;;;;;;;;;;;13.40;38.70;;;;;;5012762;28;20403;-78
2021/03/12 12:15:40;;;;;;;;;;;13.50;38.20;;;;;;5013070;28;19925;-79
2021/03/12 12:18:10;;;;;;;;;;;13.50;38.40;;;;;;5011708;28;19929;-81
2021/03/12 12:20:42;;;;;;;;;;;13.50;37.70;;;;;;5012687;28;19928;-81
2021/03/12 12:23:09;;;;;;;;;;;13.50;37.60;;;;;;5011242;28;20433;-83
2021/03/12 12:25:35;;;;;;;;;;;13.70;37.50;;;;;;5009819;28;19928;-83
2021/03/12 12:28:03;;;;;;;;;;;14.00;36.90;;;;;;5009881;28;20282;-84
2021/03/12 12:30:30;;;;;;;;;;;14.10;37.50;;;;;;5008306;28;19929;-83
2021/03/12 12:32:56;;;;;;;;;;;14.20;36.70;;;;;;5009923;28;20566;-83
2021/03/12 12:35:25;;;;;;;;;;;14.20;37.20;;;;;;5012993;28;19929;-84
2021/03/12 12:37:52;;;;;;;;;;;14.20;37.10;;;;;;5013291;28;20644;-84
2021/03/12 12:40:20;;;;;;;;;;;14.30;36.70;;;;;;5013234;28;19980;-84
2021/03/12 12:42:47;;;;;;;;;;;14.20;37.10;;;;;;5011943;28;19921;-83
2021/03/12 12:45:13;;;;;;;;;;;14.30;38.10;;;;;;5026860;28;19921;-79
2021/03/12 13:03:17;;;;;;;;;;;13.90;38.00;;;;;;4971953;28;19914;-86
2021/03/12 13:05:45;;;;;;;;;;;13.70;38.80;;;;;;4990163;28;19922;-79
2021/03/12 13:08:11;;;;;;;;;;;13.80;39.40;;;;;;5012619;28;19944;-79
2021/03/12 13:10:38;;;;;;;;;;;13.70;38.80;;;;;;5012276;28;19960;-78
2021/03/12 13:13:05;;;;;;;;;;;13.70;39.40;;;;;;4998912;28;19960;-79
2021/03/12 13:15:33;;;;;;;;;;;13.80;39.00;;;;;;5012582;28;19928;-80
2021/03/12 13:17:59;;;;;;;;;;;13.90;39.70;;;;;;5013018;28;19933;-80
2021/03/12 13:20:26;;;;;;;;;;;14.10;39.40;;;;;;5012051;28;19922;-80
2021/03/12 13:22:53;;;;;;;;;;;14.30;39.00;;;;;;5007650;28;19922;-80
2021/03/12 13:25:20;;;;;;;;;;;14.40;37.70;;;;;;5011956;28;19944;-79
2021/03/12 13:27:47;;;;;;;;;;;14.50;38.30;;;;;;5011457;28;19932;-79
2021/03/12 13:30:14;;;;;;;;;;;14.40;38.00;;;;;;5007469;28;19987;-79
2021/03/12 13:32:41;;;;;;;;;;;14.20;37.80;;;;;;5010321;28;20370;-76
2021/03/12 13:35:08;;;;;;;;;;;14.20;38.20;;;;;;4995259;28;20271;-75
2021/03/12 13:37:34;;;;;;;;;;;14.20;37.90;;;;;;4995584;28;19921;-76
2021/03/12 13:40:04;;;;;;;;;;;14.40;38.00;;;;;;5011741;28;19925;-77
2021/03/12 13:42:30;;;;;;;;;;;14.50;37.60;;;;;;5016335;28;19926;-76
2021/03/12 13:44:56;;;;;;;;;;;14.60;37.80;;;;;;5015668;28;20011;-80
2021/03/12 13:47:23;;;;;;;;;;;14.80;37.50;;;;;;5016099;28;19929;-80
2021/03/12 13:49:49;;;;;;;;;;;14.90;37.00;;;;;;5015567;28;20392;-77
2021/03/12 13:52:16;;;;;;;;;;;14.90;36.80;;;;;;5016825;28;20024;-77
2021/03/12 13:54:42;;;;;;;;;;;14.80;35.80;;;;;;5015989;28;19925;-77
2021/03/12 13:57:10;;;;;;;;;;;14.80;35.70;;;;;;5005623;28;19972;-77
2021/03/12 13:59:36;;;;;;;;;;;14.50;35.80;;;;;;5001266;28;19940;-76
2021/03/12 14:02:03;;;;;;;;;;;14.40;36.60;;;;;;5015402;28;20374;-75
2021/03/12 14:04:29;;;;;;;;;;;14.40;36.40;;;;;;5011392;28;19921;-76
2021/03/12 14:06:56;;;;;;;;;;;14.50;36.50;;;;;;4999751;28;19928;-78
2021/03/12 14:09:23;;;;;;;;;;;14.20;36.70;;;;;;5016050;28;19928;-77
2021/03/12 14:11:49;;;;;;;;;;;14.20;36.80;;;;;;5015545;28;19929;-78
2021/03/12 14:14:17;;;;;;;;;;;14.30;36.50;;;;;;5015079;28;20294;-76
2021/03/12 14:16:43;;;;;;;;;;;14.40;36.60;;;;;;5015711;28;19944;-76
2021/03/12 14:19:10;;;;;;;;;;;14.40;36.80;;;;;;5014942;28;19983;-75
2021/03/12 14:21:37;;;;;;;;;;;14.50;37.50;;;;;;5014087;28;20382;-76
2021/03/12 14:24:03;;;;;;;;;;;14.40;36.90;;;;;;5014904;28;20294;-78
2021/03/12 14:26:29;;;;;;;;;;;14.40;37.30;;;;;;4996958;28;19929;-75
2021/03/12 14:28:56;;;;;;;;;;;14.50;36.70;;;;;;5015319;28;19944;-76
2021/03/12 14:31:23;;;;;;;;;;;14.60;37.20;;;;;;5015031;28;19926;-76
2021/03/12 14:33:50;;;;;;;;;;;14.50;36.60;;;;;;5014366;28;19929;-75
2021/03/12 14:36:16;;;;;;;;;;;14.30;36.90;;;;;;5013506;28;19929;-76
2021/03/12 14:38:42;;;;;;;;;;;14.20;37.20;;;;;;5015647;28;20293;-75
2021/03/12 14:41:08;;;;;;;;;;;14.20;38.00;;;;;;5015176;28;19921;-76
2021/03/12 14:43:35;;;;;;;;;;;14.00;37.70;;;;;;5013863;28;19944;-76
2021/03/12 14:46:02;;;;;;;;;;;14.00;37.30;;;;;;5014910;28;19925;-76
2021/03/12 14:48:31;;;;;;;;;;;14.10;37.30;;;;;;5015231;28;19964;-76
2021/03/12 14:50:57;;;;;;;;;;;14.10;37.30;;;;;;5015467;28;20404;-77
2021/03/12 14:53:24;;;;;;;;;;;13.90;37.80;;;;;;5014722;28;19925;-77